sensor_id;sensor_type;location;lat;lon;timestamp;temperature;humidity
52275;DHT22;38228;50.940;4.024;2023-08-30T00:01:25;14.90;99.90
52275;DHT22;38228;50.940;4.024;2023-08-30T00:03:51;14.90;99.90
52275;DHT22;38228;50.940;4.024;2023-08-30T00:06:17;15.00;99.90
52275;DHT22;38228;50.940;4.024;2023-08-30T00:08:43;15.20;99.90
52275;DHT22;38228;50.940;4.024;2023-08-30T00:11:08;15.10;99.90
52275;DHT22;38228;50.940;4.024;2023-08-30T00:13:34;15.10;99.90
52275;DHT22;38228;50.940;4.024;2023-08-30T00:16:00;15.10;99.90
52275;DHT22;38228;50.940;4.024;2023-08-30T00:18:28;15.00;99.90
52275;DHT22;38228;50.940;4.024;2023-08-30T00:20:53;15.00;99.90
52275;DHT22;38228;50.940;4.024;2023-08-30T00:23:19;15.00;99.90
52275;DHT22;38228;50.940;4.024;2023-08-30T00:25:45;14.90;99.90
52275;DHT22;38228;50.940;4.024;2023-08-30T00:28:10;14.90;99.90
52275;DHT22;38228;50.940;4.024;2023-08-30T00:30:36;14.90;99.90
52275;DHT22;38228;50.940;4.024;2023-08-30T00:33:02;14.80;99.90
52275;DHT22;38228;50.940;4.024;2023-08-30T00:35:27;14.80;99.90
52275;DHT22;38228;50.940;4.024;2023-08-30T00:37:53;14.70;99.90
52275;DHT22;38228;50.940;4.024;2023-08-30T00:40:23;14.70;99.90
52275;DHT22;38228;50.940;4.024;2023-08-30T00:42:50;14.60;99.90
52275;DHT22;38228;50.940;4.024;2023-08-30T00:45:15;14.60;99.90
52275;DHT22;38228;50.940;4.024;2023-08-30T00:47:41;14.50;99.90
52275;DHT22;38228;50.940;4.024;2023-08-30T00:50:07;14.50;99.90
52275;DHT22;38228;50.940;4.024;2023-08-30T00:52:34;14.50;99.90
52275;DHT22;38228;50.940;4.024;2023-08-30T00:55:00;14.40;99.90
52275;DHT22;38228;50.940;4.024;2023-08-30T00:57:26;14.40;99.90
52275;DHT22;38228;50.940;4.024;2023-08-30T00:59:53;14.40;99.90
52275;DHT22;38228;50.940;4.024;2023-08-30T01:02:19;14.40;99.90
52275;DHT22;38228;50.940;4.024;2023-08-30T01:04:45;14.40;99.90
52275;DHT22;38228;50.940;4.024;2023-08-30T01:07:11;14.40;99.90
52275;DHT22;38228;50.940;4.024;2023-08-30T01:09:37;14.40;99.90
52275;DHT22;38228;50.940;4.024;2023-08-30T01:12:10;14.30;99.90
52275;DHT22;38228;50.940;4.024;2023-08-30T01:14:43;14.20;99.90
52275;DHT22;38228;50.940;4.024;2023-08-30T01:17:12;14.30;99.90
52275;DHT22;38228;50.940;4.024;2023-08-30T01:20:00;14.20;99.90
52275;DHT22;38228;50.940;4.024;2023-08-30T01:27:38;14.10;99.90
52275;DHT22;38228;50.940;4.024;2023-08-30T01:30:07;14.00;99.90
52275;DHT22;38228;50.940;4.024;2023-08-30T01:32:34;14.00;99.90
52275;DHT22;38228;50.940;4.024;2023-08-30T01:35:01;13.90;99.90
52275;DHT22;38228;50.940;4.024;2023-08-30T01:37:27;13.90;99.90
52275;DHT22;38228;50.940;4.024;2023-08-30T01:39:55;13.80;99.90
52275;DHT22;38228;50.940;4.024;2023-08-30T01:42:24;13.80;99.90
52275;DHT22;38228;50.940;4.024;2023-08-30T01:44:51;13.90;99.90
52275;DHT22;38228;50.940;4.024;2023-08-30T01:47:21;13.90;99.90
52275;DHT22;38228;50.940;4.024;2023-08-30T01:49:48;14.00;99.90
52275;DHT22;38228;50.940;4.024;2023-08-30T01:52:15;13.90;99.90
52275;DHT22;38228;50.940;4.024;2023-08-30T01:54:43;13.90;99.90
52275;DHT22;38228;50.940;4.024;2023-08-30T01:57:09;13.90;99.90
52275;DHT22;38228;50.940;4.024;2023-08-30T01:59:34;13.80;99.90
52275;DHT22;38228;50.940;4.024;2023-08-30T02:02:00;13.80;99.90
52275;DHT22;38228;50.940;4.024;2023-08-30T02:04:26;13.90;99.90
52275;DHT22;38228;50.940;4.024;2023-08-30T02:07:20;13.90;99.90
52275;DHT22;38228;50.940;4.024;2023-08-30T02:09:49;13.90;99.90
52275;DHT22;38228;50.940;4.024;2023-08-30T02:12:16;13.80;99.90
52275;DHT22;38228;50.940;4.024;2023-08-30T02:14:53;13.90;99.90
52275;DHT22;38228;50.940;4.024;2023-08-30T02:17:20;13.90;99.90
52275;DHT22;38228;50.940;4.024;2023-08-30T02:19:46;14.00;99.90
52275;DHT22;38228;50.940;4.024;2023-08-30T02:22:12;14.00;99.90
52275;DHT22;38228;50.940;4.024;2023-08-30T02:24:38;14.00;99.90
52275;DHT22;38228;50.940;4.024;2023-08-30T02:27:04;14.10;99.90
52275;DHT22;38228;50.940;4.024;2023-08-30T02:29:30;14.10;99.90
52275;DHT22;38228;50.940;4.024;2023-08-30T02:31:56;14.20;99.90
52275;DHT22;38228;50.940;4.024;2023-08-30T02:34:22;14.30;99.90
52275;DHT22;38228;50.940;4.024;2023-08-30T02:36:47;14.30;99.90
52275;DHT22;38228;50.940;4.024;2023-08-30T02:39:16;14.40;99.90
52275;DHT22;38228;50.940;4.024;2023-08-30T02:41:42;14.30;99.90
52275;DHT22;38228;50.940;4.024;2023-08-30T02:44:08;14.40;99.90
52275;DHT22;38228;50.940;4.024;2023-08-30T02:46:36;14.50;99.90
52275;DHT22;38228;50.940;4.024;2023-08-30T02:49:03;14.40;99.90
52275;DHT22;38228;50.940;4.024;2023-08-30T02:51:28;14.50;99.90
52275;DHT22;38228;50.940;4.024;2023-08-30T02:53:54;14.50;99.90
52275;DHT22;38228;50.940;4.024;2023-08-30T02:56:20;14.50;99.90
52275;DHT22;38228;50.940;4.024;2023-08-30T02:58:46;14.50;99.90
52275;DHT22;38228;50.940;4.024;2023-08-30T03:01:11;14.50;99.90
52275;DHT22;38228;50.940;4.024;2023-08-30T03:03:37;14.60;99.90
52275;DHT22;38228;50.940;4.024;2023-08-30T03:06:03;14.50;99.90
52275;DHT22;38228;50.940;4.024;2023-08-30T03:08:28;14.60;99.90
52275;DHT22;38228;50.940;4.024;2023-08-30T03:10:54;14.60;99.90
52275;DHT22;38228;50.940;4.024;2023-08-30T03:13:20;14.60;99.90
52275;DHT22;38228;50.940;4.024;2023-08-30T03:15:46;14.60;99.90
52275;DHT22;38228;50.940;4.024;2023-08-30T03:18:11;14.70;99.90
52275;DHT22;38228;50.940;4.024;2023-08-30T03:20:37;14.70;99.90
52275;DHT22;38228;50.940;4.024;2023-08-30T03:23:03;14.70;99.90
52275;DHT22;38228;50.940;4.024;2023-08-30T03:25:29;14.70;99.90
52275;DHT22;38228;50.940;4.024;2023-08-30T03:27:55;14.70;99.90
52275;DHT22;38228;50.940;4.024;2023-08-30T03:30:21;14.60;99.90
52275;DHT22;38228;50.940;4.024;2023-08-30T03:32:47;14.70;99.90
52275;DHT22;38228;50.940;4.024;2023-08-30T03:35:13;14.70;99.90
52275;DHT22;38228;50.940;4.024;2023-08-30T03:37:41;14.70;99.90
52275;DHT22;38228;50.940;4.024;2023-08-30T03:40:07;14.70;99.90
52275;DHT22;38228;50.940;4.024;2023-08-30T03:42:34;14.70;99.90
52275;DHT22;38228;50.940;4.024;2023-08-30T03:45:00;14.60;99.90
52275;DHT22;38228;50.940;4.024;2023-08-30T03:47:26;14.60;99.90
52275;DHT22;38228;50.940;4.024;2023-08-30T03:49:52;14.80;99.90
52275;DHT22;38228;50.940;4.024;2023-08-30T03:52:17;14.80;99.90
52275;DHT22;38228;50.940;4.024;2023-08-30T03:54:43;14.70;99.90
52275;DHT22;38228;50.940;4.024;2023-08-30T03:57:09;14.70;99.90
52275;DHT22;38228;50.940;4.024;2023-08-30T03:59:34;14.70;99.90
52275;DHT22;38228;50.940;4.024;2023-08-30T04:02:00;14.70;99.90
52275;DHT22;38228;50.940;4.024;2023-08-30T04:04:26;14.70;99.90
52275;DHT22;38228;50.940;4.024;2023-08-30T04:06:51;14.60;99.90
52275;DHT22;38228;50.940;4.024;2023-08-30T04:09:17;14.60;99.90
52275;DHT22;38228;50.940;4.024;2023-08-30T04:11:43;14.60;99.90
52275;DHT22;38228;50.940;4.024;2023-08-30T04:14:09;14.60;99.90
52275;DHT22;38228;50.940;4.024;2023-08-30T04:16:35;14.60;99.90
52275;DHT22;38228;50.940;4.024;2023-08-30T04:19:01;14.70;99.90
52275;DHT22;38228;50.940;4.024;2023-08-30T04:21:26;14.80;99.90
52275;DHT22;38228;50.940;4.024;2023-08-30T04:23:52;14.70;99.90
52275;DHT22;38228;50.940;4.024;2023-08-30T04:26:18;14.80;99.90
52275;DHT22;38228;50.940;4.024;2023-08-30T04:28:43;14.80;99.90
52275;DHT22;38228;50.940;4.024;2023-08-30T04:31:09;14.70;99.90
52275;DHT22;38228;50.940;4.024;2023-08-30T04:33:35;14.70;99.90
52275;DHT22;38228;50.940;4.024;2023-08-30T04:36:00;14.70;99.90
52275;DHT22;38228;50.940;4.024;2023-08-30T04:38:29;14.70;99.90
52275;DHT22;38228;50.940;4.024;2023-08-30T04:40:58;14.60;99.90
52275;DHT22;38228;50.940;4.024;2023-08-30T04:43:28;14.70;99.90
52275;DHT22;38228;50.940;4.024;2023-08-30T04:45:54;14.50;99.90
52275;DHT22;38228;50.940;4.024;2023-08-30T04:48:19;14.60;99.90
52275;DHT22;38228;50.940;4.024;2023-08-30T04:50:45;14.70;99.90
52275;DHT22;38228;50.940;4.024;2023-08-30T04:53:11;14.70;99.90
52275;DHT22;38228;50.940;4.024;2023-08-30T04:55:36;14.80;99.90
52275;DHT22;38228;50.940;4.024;2023-08-30T04:58:02;14.80;99.90
52275;DHT22;38228;50.940;4.024;2023-08-30T05:00:28;14.80;99.90
52275;DHT22;38228;50.940;4.024;2023-08-30T05:02:54;14.70;99.90
52275;DHT22;38228;50.940;4.024;2023-08-30T05:05:20;14.70;99.90
52275;DHT22;38228;50.940;4.024;2023-08-30T05:07:45;14.80;99.90
52275;DHT22;38228;50.940;4.024;2023-08-30T05:10:11;14.90;99.90
52275;DHT22;38228;50.940;4.024;2023-08-30T05:12:38;14.90;99.90
52275;DHT22;38228;50.940;4.024;2023-08-30T05:15:04;14.80;99.90
52275;DHT22;38228;50.940;4.024;2023-08-30T05:17:30;14.80;99.90
52275;DHT22;38228;50.940;4.024;2023-08-30T05:19:55;14.80;99.90
52275;DHT22;38228;50.940;4.024;2023-08-30T05:22:21;14.70;99.90
52275;DHT22;38228;50.940;4.024;2023-08-30T05:24:47;14.70;99.90
52275;DHT22;38228;50.940;4.024;2023-08-30T05:27:12;14.70;99.90
52275;DHT22;38228;50.940;4.024;2023-08-30T05:29:40;14.80;99.90
52275;DHT22;38228;50.940;4.024;2023-08-30T05:32:06;14.90;99.90
52275;DHT22;38228;50.940;4.024;2023-08-30T05:34:31;14.90;99.90
52275;DHT22;38228;50.940;4.024;2023-08-30T05:36:57;14.80;99.90
52275;DHT22;38228;50.940;4.024;2023-08-30T05:39:23;14.90;99.90
52275;DHT22;38228;50.940;4.024;2023-08-30T05:41:49;14.90;99.90
52275;DHT22;38228;50.940;4.024;2023-08-30T05:44:15;15.00;99.90
52275;DHT22;38228;50.940;4.024;2023-08-30T05:46:40;14.90;99.90
52275;DHT22;38228;50.940;4.024;2023-08-30T05:49:06;15.10;99.90
52275;DHT22;38228;50.940;4.024;2023-08-30T05:51:32;15.10;99.90
52275;DHT22;38228;50.940;4.024;2023-08-30T05:53:58;15.10;99.90
52275;DHT22;38228;50.940;4.024;2023-08-30T05:56:23;15.00;99.90
52275;DHT22;38228;50.940;4.024;2023-08-30T05:58:49;15.00;99.90
52275;DHT22;38228;50.940;4.024;2023-08-30T06:01:18;15.00;99.90
52275;DHT22;38228;50.940;4.024;2023-08-30T06:03:44;14.90;99.90
52275;DHT22;38228;50.940;4.024;2023-08-30T06:06:11;14.90;99.90
52275;DHT22;38228;50.940;4.024;2023-08-30T06:08:37;15.00;99.90
52275;DHT22;38228;50.940;4.024;2023-08-30T06:11:02;15.10;99.90
52275;DHT22;38228;50.940;4.024;2023-08-30T06:13:28;15.10;99.90
52275;DHT22;38228;50.940;4.024;2023-08-30T06:15:54;15.10;99.90
52275;DHT22;38228;50.940;4.024;2023-08-30T06:18:19;15.20;99.90
52275;DHT22;38228;50.940;4.024;2023-08-30T06:20:45;15.20;99.90
52275;DHT22;38228;50.940;4.024;2023-08-30T06:23:12;15.10;99.90
52275;DHT22;38228;50.940;4.024;2023-08-30T06:25:38;15.10;99.90
52275;DHT22;38228;50.940;4.024;2023-08-30T06:28:04;15.20;99.90
52275;DHT22;38228;50.940;4.024;2023-08-30T06:30:30;15.00;99.90
52275;DHT22;38228;50.940;4.024;2023-08-30T06:32:56;15.00;99.90
52275;DHT22;38228;50.940;4.024;2023-08-30T06:35:23;15.00;99.90
52275;DHT22;38228;50.940;4.024;2023-08-30T06:37:49;15.10;99.90
52275;DHT22;38228;50.940;4.024;2023-08-30T06:40:15;15.20;99.90
52275;DHT22;38228;50.940;4.024;2023-08-30T06:42:40;15.20;99.90
52275;DHT22;38228;50.940;4.024;2023-08-30T06:45:06;15.30;99.90
52275;DHT22;38228;50.940;4.024;2023-08-30T06:47:32;15.20;99.90
52275;DHT22;38228;50.940;4.024;2023-08-30T06:49:59;15.10;99.90
52275;DHT22;38228;50.940;4.024;2023-08-30T06:52:25;15.10;99.90
52275;DHT22;38228;50.940;4.024;2023-08-30T06:54:51;15.10;99.90
52275;DHT22;38228;50.940;4.024;2023-08-30T06:57:17;15.20;99.90
52275;DHT22;38228;50.940;4.024;2023-08-30T06:59:42;15.10;99.90
52275;DHT22;38228;50.940;4.024;2023-08-30T07:02:08;15.20;99.90
52275;DHT22;38228;50.940;4.024;2023-08-30T07:04:34;15.10;99.90
52275;DHT22;38228;50.940;4.024;2023-08-30T07:07:00;15.20;99.90
52275;DHT22;38228;50.940;4.024;2023-08-30T07:09:25;15.40;99.90
52275;DHT22;38228;50.940;4.024;2023-08-30T07:11:55;15.40;99.90
52275;DHT22;38228;50.940;4.024;2023-08-30T07:14:21;15.70;99.90
52275;DHT22;38228;50.940;4.024;2023-08-30T07:16:47;15.70;99.90
52275;DHT22;38228;50.940;4.024;2023-08-30T07:19:15;15.60;99.90
52275;DHT22;38228;50.940;4.024;2023-08-30T07:21:42;15.50;99.90
52275;DHT22;38228;50.940;4.024;2023-08-30T07:24:08;15.40;99.90
52275;DHT22;38228;50.940;4.024;2023-08-30T07:26:34;15.50;99.90
52275;DHT22;38228;50.940;4.024;2023-08-30T07:29:00;15.40;99.90
52275;DHT22;38228;50.940;4.024;2023-08-30T07:31:26;15.40;99.90
52275;DHT22;38228;50.940;4.024;2023-08-30T07:33:52;15.30;99.90
52275;DHT22;38228;50.940;4.024;2023-08-30T07:36:17;15.50;99.90
52275;DHT22;38228;50.940;4.024;2023-08-30T07:38:43;15.50;99.90
52275;DHT22;38228;50.940;4.024;2023-08-30T07:41:09;15.30;99.90
52275;DHT22;38228;50.940;4.024;2023-08-30T07:43:35;15.20;99.90
52275;DHT22;38228;50.940;4.024;2023-08-30T07:46:01;15.40;99.90
52275;DHT22;38228;50.940;4.024;2023-08-30T07:48:27;15.60;99.90
52275;DHT22;38228;50.940;4.024;2023-08-30T07:50:53;15.80;99.90
52275;DHT22;38228;50.940;4.024;2023-08-30T07:53:18;16.00;99.90
52275;DHT22;38228;50.940;4.024;2023-08-30T07:55:48;16.20;99.90
52275;DHT22;38228;50.940;4.024;2023-08-30T07:58:15;16.60;99.90
52275;DHT22;38228;50.940;4.024;2023-08-30T08:00:41;16.70;99.90
52275;DHT22;38228;50.940;4.024;2023-08-30T08:03:07;16.70;99.90
52275;DHT22;38228;50.940;4.024;2023-08-30T08:05:32;16.80;99.90
52275;DHT22;38228;50.940;4.024;2023-08-30T08:08:00;16.90;99.90
52275;DHT22;38228;50.940;4.024;2023-08-30T08:10:27;17.10;99.90
52275;DHT22;38228;50.940;4.024;2023-08-30T08:12:52;17.50;99.90
52275;DHT22;38228;50.940;4.024;2023-08-30T08:15:18;17.50;99.90
52275;DHT22;38228;50.940;4.024;2023-08-30T08:17:44;17.50;99.90
52275;DHT22;38228;50.940;4.024;2023-08-30T08:20:10;17.60;99.90
52275;DHT22;38228;50.940;4.024;2023-08-30T08:22:35;17.40;99.90
52275;DHT22;38228;50.940;4.024;2023-08-30T08:25:02;17.60;99.90
52275;DHT22;38228;50.940;4.024;2023-08-30T08:27:28;17.60;99.90
52275;DHT22;38228;50.940;4.024;2023-08-30T08:29:53;17.50;99.90
52275;DHT22;38228;50.940;4.024;2023-08-30T08:32:19;17.40;99.90
52275;DHT22;38228;50.940;4.024;2023-08-30T08:34:45;17.50;99.90
52275;DHT22;38228;50.940;4.024;2023-08-30T08:37:11;17.50;99.90
52275;DHT22;38228;50.940;4.024;2023-08-30T08:39:37;17.30;99.90
52275;DHT22;38228;50.940;4.024;2023-08-30T08:42:03;17.20;99.90
52275;DHT22;38228;50.940;4.024;2023-08-30T08:44:31;17.30;99.90
52275;DHT22;38228;50.940;4.024;2023-08-30T08:46:58;17.20;99.90
52275;DHT22;38228;50.940;4.024;2023-08-30T08:49:25;17.40;99.90
52275;DHT22;38228;50.940;4.024;2023-08-30T08:51:54;17.40;99.90
52275;DHT22;38228;50.940;4.024;2023-08-30T08:54:21;17.60;99.90
52275;DHT22;38228;50.940;4.024;2023-08-30T08:56:48;17.70;99.90
52275;DHT22;38228;50.940;4.024;2023-08-30T08:59:14;17.80;99.90
52275;DHT22;38228;50.940;4.024;2023-08-30T09:01:40;17.90;99.90
52275;DHT22;38228;50.940;4.024;2023-08-30T09:04:08;17.90;99.90
52275;DHT22;38228;50.940;4.024;2023-08-30T09:06:37;17.90;99.90
52275;DHT22;38228;50.940;4.024;2023-08-30T09:09:05;17.90;99.90
52275;DHT22;38228;50.940;4.024;2023-08-30T09:11:32;18.00;99.90
52275;DHT22;38228;50.940;4.024;2023-08-30T09:13:58;17.60;99.90
52275;DHT22;38228;50.940;4.024;2023-08-30T09:16:24;17.60;99.90
52275;DHT22;38228;50.940;4.024;2023-08-30T09:19:02;17.50;99.90
52275;DHT22;38228;50.940;4.024;2023-08-30T09:21:29;17.60;99.90
52275;DHT22;38228;50.940;4.024;2023-08-30T09:24:01;17.70;99.90
52275;DHT22;38228;50.940;4.024;2023-08-30T09:26:28;17.70;99.90
52275;DHT22;38228;50.940;4.024;2023-08-30T09:29:06;17.80;99.90
52275;DHT22;38228;50.940;4.024;2023-08-30T09:31:36;17.80;99.90
52275;DHT22;38228;50.940;4.024;2023-08-30T09:34:05;17.70;99.90
52275;DHT22;38228;50.940;4.024;2023-08-30T09:36:39;17.60;99.90
52275;DHT22;38228;50.940;4.024;2023-08-30T09:39:09;17.60;99.90
52275;DHT22;38228;50.940;4.024;2023-08-30T09:41:42;17.50;99.90
52275;DHT22;38228;50.940;4.024;2023-08-30T09:44:12;17.60;99.90
52275;DHT22;38228;50.940;4.024;2023-08-30T09:46:45;17.70;99.90
52275;DHT22;38228;50.940;4.024;2023-08-30T09:49:11;17.80;99.90
52275;DHT22;38228;50.940;4.024;2023-08-30T09:51:41;17.90;99.90
52275;DHT22;38228;50.940;4.024;2023-08-30T09:54:35;18.10;99.90
52275;DHT22;38228;50.940;4.024;2023-08-30T09:57:00;18.20;99.90
52275;DHT22;38228;50.940;4.024;2023-08-30T09:59:26;18.30;99.90
52275;DHT22;38228;50.940;4.024;2023-08-30T10:01:52;18.40;99.90
52275;DHT22;38228;50.940;4.024;2023-08-30T10:04:19;18.40;99.90
52275;DHT22;38228;50.940;4.024;2023-08-30T10:06:46;18.40;99.90
52275;DHT22;38228;50.940;4.024;2023-08-30T10:09:14;18.50;99.90
52275;DHT22;38228;50.940;4.024;2023-08-30T10:11:40;18.40;99.90
52275;DHT22;38228;50.940;4.024;2023-08-30T10:14:06;18.30;99.90
52275;DHT22;38228;50.940;4.024;2023-08-30T10:16:56;18.20;99.90
52275;DHT22;38228;50.940;4.024;2023-08-30T10:19:27;18.20;99.90
52275;DHT22;38228;50.940;4.024;2023-08-30T10:22:05;18.10;99.90
52275;DHT22;38228;50.940;4.024;2023-08-30T10:24:41;18.10;99.90
52275;DHT22;38228;50.940;4.024;2023-08-30T10:27:08;18.00;99.90
52275;DHT22;38228;50.940;4.024;2023-08-30T10:29:36;18.10;99.90
52275;DHT22;38228;50.940;4.024;2023-08-30T10:32:06;18.30;99.90
52275;DHT22;38228;50.940;4.024;2023-08-30T10:34:33;18.40;99.90
52275;DHT22;38228;50.940;4.024;2023-08-30T10:37:06;18.50;99.90
52275;DHT22;38228;50.940;4.024;2023-08-30T10:39:36;18.50;99.90
52275;DHT22;38228;50.940;4.024;2023-08-30T10:44:33;18.40;99.90
52275;DHT22;38228;50.940;4.024;2023-08-30T10:47:01;18.30;99.90
52275;DHT22;38228;50.940;4.024;2023-08-30T10:49:28;18.50;99.90
52275;DHT22;38228;50.940;4.024;2023-08-30T10:51:57;18.60;99.90
52275;DHT22;38228;50.940;4.024;2023-08-30T10:54:24;18.50;99.90
52275;DHT22;38228;50.940;4.024;2023-08-30T10:56:57;18.60;99.90
52275;DHT22;38228;50.940;4.024;2023-08-30T10:59:25;18.80;99.90
52275;DHT22;38228;50.940;4.024;2023-08-30T11:01:52;18.90;99.90
52275;DHT22;38228;50.940;4.024;2023-08-30T11:04:19;19.00;99.90
52275;DHT22;38228;50.940;4.024;2023-08-30T11:06:46;19.20;99.90
52275;DHT22;38228;50.940;4.024;2023-08-30T11:09:16;19.20;99.90
52275;DHT22;38228;50.940;4.024;2023-08-30T11:11:49;19.40;99.90
52275;DHT22;38228;50.940;4.024;2023-08-30T11:14:16;19.30;99.90
52275;DHT22;38228;50.940;4.024;2023-08-30T11:16:42;19.20;99.90
52275;DHT22;38228;50.940;4.024;2023-08-30T11:19:10;19.10;99.90
52275;DHT22;38228;50.940;4.024;2023-08-30T11:21:38;19.00;99.90
52275;DHT22;38228;50.940;4.024;2023-08-30T11:24:05;19.00;99.90
52275;DHT22;38228;50.940;4.024;2023-08-30T11:26:31;19.00;99.90
52275;DHT22;38228;50.940;4.024;2023-08-30T11:28:57;19.00;99.90
52275;DHT22;38228;50.940;4.024;2023-08-30T11:31:24;18.80;99.90
52275;DHT22;38228;50.940;4.024;2023-08-30T11:33:54;18.80;99.90
52275;DHT22;38228;50.940;4.024;2023-08-30T11:36:22;18.80;99.90
52275;DHT22;38228;50.940;4.024;2023-08-30T11:38:52;18.80;99.90
52275;DHT22;38228;50.940;4.024;2023-08-30T11:41:20;18.90;99.90
52275;DHT22;38228;50.940;4.024;2023-08-30T11:43:47;19.00;99.90
52275;DHT22;38228;50.940;4.024;2023-08-30T11:46:13;19.20;99.90
52275;DHT22;38228;50.940;4.024;2023-08-30T11:48:43;19.40;99.90
52275;DHT22;38228;50.940;4.024;2023-08-30T11:51:09;19.40;99.90
52275;DHT22;38228;50.940;4.024;2023-08-30T11:53:37;19.30;99.90
52275;DHT22;38228;50.940;4.024;2023-08-30T11:56:03;19.50;99.90
52275;DHT22;38228;50.940;4.024;2023-08-30T11:58:32;19.70;99.90
52275;DHT22;38228;50.940;4.024;2023-08-30T12:00:59;19.80;99.90
52275;DHT22;38228;50.940;4.024;2023-08-30T12:03:29;19.80;99.90
52275;DHT22;38228;50.940;4.024;2023-08-30T12:05:55;19.60;99.90
52275;DHT22;38228;50.940;4.024;2023-08-30T12:08:25;19.50;99.90
52275;DHT22;38228;50.940;4.024;2023-08-30T12:10:52;19.50;99.90
52275;DHT22;38228;50.940;4.024;2023-08-30T12:13:32;19.30;99.90
52275;DHT22;38228;50.940;4.024;2023-08-30T12:15:59;18.80;99.90
52275;DHT22;38228;50.940;4.024;2023-08-30T12:18:32;18.80;99.90
52275;DHT22;38228;50.940;4.024;2023-08-30T12:21:01;18.90;99.90
52275;DHT22;38228;50.940;4.024;2023-08-30T12:23:28;19.10;99.90
52275;DHT22;38228;50.940;4.024;2023-08-30T12:26:07;19.40;99.90
52275;DHT22;38228;50.940;4.024;2023-08-30T12:28:40;19.70;99.90
52275;DHT22;38228;50.940;4.024;2023-08-30T12:31:07;19.70;99.90
52275;DHT22;38228;50.940;4.024;2023-08-30T12:33:36;19.40;99.90
52275;DHT22;38228;50.940;4.024;2023-08-30T12:36:02;19.40;99.90
52275;DHT22;38228;50.940;4.024;2023-08-30T14:02:58;18.00;99.90
52275;DHT22;38228;50.940;4.024;2023-08-30T14:05:24;20.50;99.90
52275;DHT22;38228;50.940;4.024;2023-08-30T14:07:50;20.20;99.90
52275;DHT22;38228;50.940;4.024;2023-08-30T14:10:16;20.10;99.90
52275;DHT22;38228;50.940;4.024;2023-08-30T14:12:44;20.00;99.90
52275;DHT22;38228;50.940;4.024;2023-08-30T14:15:09;19.90;99.90
52275;DHT22;38228;50.940;4.024;2023-08-30T14:17:35;19.90;99.90
52275;DHT22;38228;50.940;4.024;2023-08-30T14:20:01;20.30;99.90
52275;DHT22;38228;50.940;4.024;2023-08-30T14:22:27;20.70;99.90
52275;DHT22;38228;50.940;4.024;2023-08-30T14:24:52;20.80;99.90
52275;DHT22;38228;50.940;4.024;2023-08-30T14:27:18;20.50;99.90
52275;DHT22;38228;50.940;4.024;2023-08-30T14:29:44;20.60;99.90
52275;DHT22;38228;50.940;4.024;2023-08-30T14:32:10;20.90;99.90
52275;DHT22;38228;50.940;4.024;2023-08-30T14:34:35;20.80;99.90
52275;DHT22;38228;50.940;4.024;2023-08-30T14:37:01;20.90;99.90
52275;DHT22;38228;50.940;4.024;2023-08-30T14:39:27;21.30;99.90
52275;DHT22;38228;50.940;4.024;2023-08-30T14:41:53;21.80;99.90
52275;DHT22;38228;50.940;4.024;2023-08-30T14:44:19;21.60;99.90
52275;DHT22;38228;50.940;4.024;2023-08-30T14:46:45;21.20;99.90
52275;DHT22;38228;50.940;4.024;2023-08-30T14:49:11;21.00;99.90
52275;DHT22;38228;50.940;4.024;2023-08-30T14:51:37;21.20;99.90
52275;DHT22;38228;50.940;4.024;2023-08-30T14:54:03;21.40;99.90
52275;DHT22;38228;50.940;4.024;2023-08-30T14:56:30;21.70;99.90
52275;DHT22;38228;50.940;4.024;2023-08-30T14:58:55;21.70;99.90
52275;DHT22;38228;50.940;4.024;2023-08-30T15:01:21;21.70;99.90
52275;DHT22;38228;50.940;4.024;2023-08-30T15:03:47;21.80;99.90
52275;DHT22;38228;50.940;4.024;2023-08-30T15:06:13;21.80;99.90
52275;DHT22;38228;50.940;4.024;2023-08-30T15:08:38;21.40;99.90
52275;DHT22;38228;50.940;4.024;2023-08-30T15:11:05;21.00;99.90
52275;DHT22;38228;50.940;4.024;2023-08-30T15:13:32;21.20;99.90
52275;DHT22;38228;50.940;4.024;2023-08-30T15:15:58;21.70;99.90
52275;DHT22;38228;50.940;4.024;2023-08-30T15:18:24;22.40;99.90
52275;DHT22;38228;50.940;4.024;2023-08-30T15:20:53;22.20;99.90
52275;DHT22;38228;50.940;4.024;2023-08-30T15:23:19;21.70;99.90
52275;DHT22;38228;50.940;4.024;2023-08-30T15:25:46;21.30;99.90
52275;DHT22;38228;50.940;4.024;2023-08-30T15:28:15;20.90;99.90
52275;DHT22;38228;50.940;4.024;2023-08-30T15:30:45;20.60;99.90
52275;DHT22;38228;50.940;4.024;2023-08-30T15:33:11;20.20;99.90
52275;DHT22;38228;50.940;4.024;2023-08-30T15:35:38;20.20;99.90
52275;DHT22;38228;50.940;4.024;2023-08-30T15:38:05;20.00;99.90
52275;DHT22;38228;50.940;4.024;2023-08-30T15:40:30;19.80;99.90
52275;DHT22;38228;50.940;4.024;2023-08-30T15:42:59;19.60;99.90
52275;DHT22;38228;50.940;4.024;2023-08-30T15:45:25;19.50;99.90
52275;DHT22;38228;50.940;4.024;2023-08-30T15:47:50;19.50;99.90
52275;DHT22;38228;50.940;4.024;2023-08-30T15:50:17;19.50;99.90
52275;DHT22;38228;50.940;4.024;2023-08-30T15:52:42;19.40;99.90
52275;DHT22;38228;50.940;4.024;2023-08-30T15:55:08;19.30;99.90
52275;DHT22;38228;50.940;4.024;2023-08-30T15:57:35;19.30;99.90
52275;DHT22;38228;50.940;4.024;2023-08-30T16:00:01;19.40;99.90
52275;DHT22;38228;50.940;4.024;2023-08-30T16:02:26;19.30;99.90
52275;DHT22;38228;50.940;4.024;2023-08-30T16:04:52;19.30;99.90
52275;DHT22;38228;50.940;4.024;2023-08-30T16:07:18;19.30;99.90
52275;DHT22;38228;50.940;4.024;2023-08-30T16:09:43;19.30;99.90
52275;DHT22;38228;50.940;4.024;2023-08-30T16:12:14;19.00;99.90
52275;DHT22;38228;50.940;4.024;2023-08-30T16:14:39;19.00;99.90
52275;DHT22;38228;50.940;4.024;2023-08-30T16:17:05;19.30;99.90
52275;DHT22;38228;50.940;4.024;2023-08-30T16:19:31;19.50;99.90
52275;DHT22;38228;50.940;4.024;2023-08-30T16:22:03;20.20;99.90
52275;DHT22;38228;50.940;4.024;2023-08-30T16:24:29;20.80;99.90
52275;DHT22;38228;50.940;4.024;2023-08-30T16:26:55;21.20;99.90
52275;DHT22;38228;50.940;4.024;2023-08-30T16:29:24;21.40;99.90
52275;DHT22;38228;50.940;4.024;2023-08-30T16:31:50;21.50;99.90
52275;DHT22;38228;50.940;4.024;2023-08-30T16:34:21;21.70;99.90
52275;DHT22;38228;50.940;4.024;2023-08-30T16:36:50;21.70;99.90
52275;DHT22;38228;50.940;4.024;2023-08-30T16:39:16;21.50;99.90
52275;DHT22;38228;50.940;4.024;2023-08-30T16:41:42;20.80;99.90
52275;DHT22;38228;50.940;4.024;2023-08-30T16:44:08;20.30;99.90
52275;DHT22;38228;50.940;4.024;2023-08-30T16:46:34;19.90;99.90
52275;DHT22;38228;50.940;4.024;2023-08-30T16:49:02;19.70;99.90
52275;DHT22;38228;50.940;4.024;2023-08-30T16:51:28;19.30;99.90
52275;DHT22;38228;50.940;4.024;2023-08-30T16:53:53;19.20;99.90
52275;DHT22;38228;50.940;4.024;2023-08-30T16:56:19;19.10;99.90
52275;DHT22;38228;50.940;4.024;2023-08-30T16:58:45;19.10;99.90
52275;DHT22;38228;50.940;4.024;2023-08-30T17:01:10;19.20;99.90